createdAt,value
2022-09-03T00:01:16.946Z,66.19
2022-09-03T00:03:51.804Z,66.43
2022-09-03T00:06:38.354Z,66.72
2022-09-03T00:09:23.973Z,68.35
2022-09-03T00:12:06.336Z,68.36
2022-09-03T00:14:50.598Z,68.73
2022-09-03T00:17:27.394Z,68.79
2022-09-03T00:20:22.242Z,68.21
2022-09-03T00:22:53.238Z,68.14
2022-09-03T00:25:45.565Z,67.80
2022-09-03T00:28:29.954Z,67.74
2022-09-03T00:31:18.962Z,68.36
2022-09-03T00:33:49.617Z,68.06
2022-09-03T00:36:23.618Z,68.48
2022-09-03T00:38:52.284Z,68.53
2022-09-03T00:41:48.416Z,70.00
2022-09-03T00:44:36.175Z,69.90
2022-09-03T00:47:25.574Z,71.31
2022-09-03T00:50:24.064Z,72.12
2022-09-03T00:53:06.563Z,72.31
2022-09-03T00:55:57.062Z,72.80
2022-09-03T00:58:39.820Z,73.70
2022-09-03T01:01:30.502Z,73.49
2022-09-03T01:04:22.363Z,74.02
2022-09-03T01:06:57.477Z,74.31
2022-09-03T01:09:52.087Z,75.17
2022-09-03T01:12:26.081Z,76.21
2022-09-03T01:15:36.014Z,74.95
2022-09-03T01:18:27.324Z,74.77
2022-09-03T01:21:23.342Z,73.43
2022-09-03T01:24:07.420Z,73.28
2022-09-03T01:26:48.670Z,73.73
2022-09-03T01:29:29.723Z,73.79
2022-09-03T01:32:10.123Z,74.17
2022-09-03T01:34:53.983Z,75.18
2022-09-03T01:37:32.576Z,75.42
2022-09-03T01:40:09.083Z,75.57
2022-09-03T01:42:53.933Z,75.29
2022-09-03T01:46:00.760Z,74.46
2022-09-03T01:48:44.460Z,75.06
2022-09-03T01:51:25.671Z,74.43
2022-09-03T01:53:53.120Z,74.36
2022-09-03T01:56:58.089Z,73.61
2022-09-03T01:59:38.154Z,72.24
2022-09-03T02:02:12.850Z,72.04
2022-09-03T02:04:40.448Z,72.34
2022-09-03T02:07:08.051Z,72.04
2022-09-03T02:09:35.541Z,72.58
2022-09-03T02:12:11.523Z,72.79
2022-09-03T02:14:39.155Z,74.39
2022-09-03T02:17:08.558Z,74.18
2022-09-03T02:19:37.737Z,75.79
2022-09-03T02:22:06.113Z,75.95
2022-09-03T02:24:33.928Z,76.92
2022-09-03T02:27:02.431Z,77.08
2022-09-03T02:29:30.887Z,78.09
2022-09-03T02:31:59.087Z,78.29
2022-09-03T02:34:26.708Z,79.17
2022-09-03T02:36:54.613Z,80.22
2022-09-03T02:39:22.338Z,81.55
2022-09-03T02:41:57.786Z,83.06
2022-09-03T02:44:31.795Z,84.17
2022-09-03T02:47:05.383Z,84.44
2022-09-03T02:49:33.358Z,85.61
2022-09-03T02:52:06.492Z,86.16
2022-09-03T02:54:36.458Z,85.09
2022-09-03T02:57:13.182Z,84.64
2022-09-03T02:59:44.163Z,85.04
2022-09-03T03:02:14.139Z,84.57
2022-09-03T03:04:41.682Z,85.31
2022-09-03T03:07:09.658Z,84.90
2022-09-03T03:09:37.162Z,85.16
2022-09-03T03:12:05.494Z,84.53
2022-09-03T03:14:33.089Z,84.48
2022-09-03T03:17:00.717Z,82.81
2022-09-03T03:19:28.571Z,83.59
2022-09-03T03:21:57.119Z,83.96
2022-09-03T03:24:24.638Z,84.17
2022-09-03T03:26:57.804Z,84.77
2022-09-03T03:29:25.661Z,85.36
2022-09-03T03:31:53.298Z,85.82
2022-09-03T03:34:21.741Z,86.90
2022-09-03T03:36:49.277Z,86.90
2022-09-03T03:39:16.852Z,87.36
2022-09-03T03:41:44.530Z,87.53
2022-09-03T03:44:12.256Z,87.83
2022-09-03T03:46:41.781Z,88.74
2022-09-03T03:49:11.795Z,88.62
2022-09-03T03:51:40.199Z,88.54
2022-09-03T03:54:07.851Z,89.39
2022-09-03T03:56:35.666Z,88.90
2022-09-03T03:59:04.296Z,89.22
2022-09-03T04:01:32.670Z,90.35
2022-09-03T04:04:00.611Z,90.79
2022-09-03T04:06:29.012Z,91.57
2022-09-03T04:08:57.034Z,91.27
2022-09-03T04:11:25.421Z,91.45
2022-09-03T04:13:53.608Z,93.06
2022-09-03T04:16:26.843Z,92.25
2022-09-03T04:18:56.957Z,92.01
2022-09-03T04:21:28.419Z,92.04
2022-09-03T04:23:57.585Z,92.36
2022-09-03T04:26:31.677Z,92.13
2022-09-03T04:29:01.397Z,92.56
2022-09-03T04:31:29.547Z,92.34
2022-09-03T04:33:57.811Z,92.77
2022-09-03T04:36:27.989Z,93.17
2022-09-03T04:38:58.419Z,92.77
2022-09-03T04:41:28.364Z,92.62
2022-09-03T04:43:58.252Z,92.10
2022-09-03T04:46:33.434Z,92.63
2022-09-03T04:49:02.462Z,91.37
2022-09-03T04:51:31.631Z,91.35
2022-09-03T04:54:01.748Z,91.58
2022-09-03T04:56:35.105Z,90.50
2022-09-03T04:59:09.161Z,89.38
2022-09-03T05:01:39.280Z,88.44
2022-09-03T05:04:08.127Z,87.19
2022-09-03T05:06:37.195Z,86.84
2022-09-03T05:09:05.724Z,86.73
2022-09-03T05:11:33.261Z,86.26
2022-09-03T05:14:01.210Z,86.59
2022-09-03T05:16:30.962Z,86.40
2022-09-03T05:19:00.128Z,85.34
2022-09-03T05:21:28.755Z,85.67
2022-09-03T05:23:57.148Z,85.17
2022-09-03T05:26:27.692Z,84.47
2022-09-03T05:28:57.250Z,83.84
2022-09-03T05:31:28.335Z,83.30
2022-09-03T05:33:59.740Z,82.31
2022-09-03T05:36:32.732Z,82.46
2022-09-03T05:39:00.408Z,82.19
2022-09-03T05:41:29.087Z,81.53
2022-09-03T05:43:58.749Z,81.36
2022-09-03T05:46:32.631Z,82.39
2022-09-03T05:49:02.135Z,82.90
2022-09-03T05:51:30.857Z,82.81
2022-09-03T05:53:59.181Z,82.23
2022-09-03T05:56:29.034Z,81.56
2022-09-03T05:59:01.719Z,80.68
2022-09-03T06:01:32.751Z,79.90
2022-09-03T06:04:01.920Z,80.10
2022-09-03T06:06:32.996Z,78.51
2022-09-03T06:09:03.437Z,78.66
2022-09-03T06:11:32.948Z,75.80
2022-09-03T06:14:01.807Z,75.82
2022-09-03T06:16:31.859Z,75.20
2022-09-03T06:19:00.839Z,70.85
2022-09-03T06:21:29.126Z,68.02
2022-09-03T06:24:00.091Z,68.08
2022-09-03T06:26:29.516Z,68.43
2022-09-03T06:28:57.982Z,67.92
2022-09-03T06:31:26.444Z,66.54
2022-09-03T06:33:54.727Z,64.92
2022-09-03T06:36:24.018Z,63.82
2022-09-03T06:38:53.691Z,64.32
2022-09-03T06:41:26.771Z,62.70
2022-09-03T06:43:59.322Z,61.91
2022-09-03T06:46:26.833Z,58.91
2022-09-03T06:48:54.512Z,58.93
2022-09-03T06:51:27.589Z,58.53
2022-09-03T06:54:04.006Z,57.64
2022-09-03T06:56:38.855Z,58.52
2022-09-03T06:59:11.993Z,58.10
2022-09-03T07:01:44.118Z,57.87
2022-09-03T07:04:16.213Z,55.47
2022-09-03T07:06:44.474Z,54.91
2022-09-03T07:09:12.739Z,53.36
2022-09-03T07:11:47.401Z,52.39
2022-09-03T07:14:17.637Z,53.65
2022-09-03T07:16:46.369Z,54.55
2022-09-03T07:19:14.382Z,55.17
2022-09-03T07:21:48.116Z,53.69
2022-09-03T07:24:18.333Z,52.86
2022-09-03T07:26:49.483Z,52.47
2022-09-03T07:29:20.823Z,53.34
2022-09-03T07:31:53.709Z,52.72
2022-09-03T07:34:25.525Z,52.91
2022-09-03T07:36:54.938Z,51.60
2022-09-03T07:39:22.629Z,52.07
2022-09-03T07:41:50.755Z,52.47
2022-09-03T07:44:19.903Z,53.94
2022-09-03T07:46:50.109Z,54.87
2022-09-03T07:49:17.705Z,53.73
2022-09-03T07:51:46.711Z,51.73
2022-09-03T07:54:14.287Z,49.89
2022-09-03T07:56:41.898Z,49.77
2022-09-03T07:59:09.646Z,48.55
2022-09-03T08:01:38.417Z,48.03
2022-09-03T08:04:09.865Z,48.92
2022-09-03T08:06:39.224Z,50.06
2022-09-03T08:09:11.387Z,47.81
2022-09-03T08:11:43.372Z,48.23
2022-09-03T08:14:13.471Z,47.25
2022-09-03T08:16:43.497Z,46.01
2022-09-03T08:19:12.096Z,47.05
2022-09-03T08:21:42.296Z,45.99
2022-09-03T08:24:12.079Z,45.27
2022-09-03T08:26:46.244Z,44.89
2022-09-03T08:29:14.091Z,44.69
2022-09-03T08:31:41.756Z,43.90
2022-09-03T08:34:11.871Z,44.33
2022-09-03T08:36:43.726Z,43.66
2022-09-03T08:39:12.357Z,44.11
2022-09-03T08:41:52.575Z,43.98
2022-09-03T08:44:29.418Z,44.06
2022-09-03T08:47:21.377Z,43.68
2022-09-03T08:49:49.278Z,44.39
2022-09-03T08:52:28.837Z,43.63
2022-09-03T08:55:06.181Z,42.25
2022-09-03T08:57:48.167Z,43.21
2022-09-03T09:00:18.209Z,43.78
2022-09-03T09:03:07.597Z,42.37
2022-09-03T09:05:53.380Z,42.63
2022-09-03T09:08:36.116Z,43.38
2022-09-03T09:11:16.335Z,42.07
2022-09-03T09:14:12.376Z,42.95
2022-09-03T09:16:55.442Z,42.33
2022-09-03T09:19:42.447Z,43.11
2022-09-03T09:22:15.171Z,43.08
2022-09-03T09:24:47.251Z,42.12
2022-09-03T09:27:19.946Z,41.00
2022-09-03T09:29:50.724Z,39.38
2022-09-03T09:32:21.631Z,39.47
2022-09-03T09:34:52.492Z,37.62
2022-09-03T09:37:22.134Z,37.28
2022-09-03T09:40:01.296Z,37.45
2022-09-03T09:42:31.142Z,36.64
2022-09-03T09:45:09.543Z,36.19
2022-09-03T09:47:40.086Z,34.62
2022-09-03T09:50:26.151Z,33.39
2022-09-03T09:53:18.014Z,32.41
2022-09-03T09:55:54.080Z,34.28
2022-09-03T09:58:24.071Z,34.54
2022-09-03T10:01:13.245Z,33.02
2022-09-03T10:03:50.045Z,33.88
2022-09-03T10:06:36.196Z,34.31
2022-09-03T10:09:13.096Z,33.80
2022-09-03T10:11:47.895Z,32.54
2022-09-03T10:14:33.402Z,30.31
2022-09-03T10:17:14.764Z,30.36
2022-09-03T10:20:16.247Z,28.66
2022-09-03T10:22:57.356Z,31.67
2022-09-03T10:25:39.312Z,31.89
2022-09-03T10:28:10.026Z,31.77
2022-09-03T10:30:55.312Z,33.57
2022-09-03T10:33:37.024Z,32.03
2022-09-03T10:36:20.102Z,29.25
2022-09-03T10:39:19.831Z,30.34
2022-09-03T10:42:11.772Z,32.61
2022-09-03T10:44:48.148Z,37.01
2022-09-03T10:47:35.368Z,36.88
2022-09-03T10:50:23.227Z,36.23
2022-09-03T10:53:25.700Z,35.33
2022-09-03T10:56:12.994Z,35.71
2022-09-03T10:58:55.098Z,34.04
2022-09-03T11:01:38.086Z,31.97
2022-09-03T11:04:17.836Z,30.69
2022-09-03T11:06:51.500Z,31.55
2022-09-03T11:09:26.775Z,29.63
2022-09-03T11:12:00.164Z,27.77
2022-09-03T11:14:38.328Z,25.62
2022-09-03T11:17:13.165Z,26.37
2022-09-03T11:19:53.027Z,28.81
2022-09-03T11:22:23.463Z,28.71
2022-09-03T11:24:56.697Z,26.92
2022-09-03T11:27:30.086Z,26.23
2022-09-03T11:30:22.378Z,26.38
2022-09-03T11:32:55.678Z,25.70
2022-09-03T11:35:38.733Z,30.10
2022-09-03T11:38:29.179Z,31.39
2022-09-03T11:40:59.961Z,31.61
2022-09-03T11:43:32.632Z,29.64
2022-09-03T11:46:14.773Z,26.97
2022-09-03T11:48:45.113Z,27.83
2022-09-03T11:51:30.448Z,28.75
2022-09-03T11:54:13.499Z,25.58
2022-09-03T11:56:42.986Z,25.14
2022-09-03T11:59:16.425Z,26.97
2022-09-03T12:02:13.216Z,28.19
2022-09-03T12:05:19.592Z,25.28
2022-09-03T12:08:06.762Z,24.98
2022-09-03T12:11:23.884Z,25.04
2022-09-03T12:14:00.627Z,22.96
2022-09-03T12:17:25.229Z,25.92
2022-09-03T12:19:55.538Z,25.30
2022-09-03T12:22:28.890Z,28.88
2022-09-03T12:24:56.502Z,30.67
2022-09-03T12:27:27.196Z,32.30
2022-09-03T12:30:05.451Z,29.70
2022-09-03T12:32:39.444Z,28.01
2022-09-03T12:38:09.091Z,27.17
2022-09-03T12:43:39.456Z,30.22
2022-09-03T12:46:14.640Z,29.61
2022-09-03T12:51:49.896Z,31.33
2022-09-03T12:54:21.208Z,29.11
2022-09-03T12:56:58.486Z,27.67
2022-09-03T12:59:30.929Z,29.55
2022-09-03T13:02:05.599Z,27.51
2022-09-03T13:04:36.373Z,26.74
2022-09-03T13:07:11.674Z,26.96
2022-09-03T13:09:41.232Z,25.72
2022-09-03T13:12:33.588Z,25.00
2022-09-03T13:15:08.368Z,23.87
2022-09-03T13:17:47.932Z,25.79
2022-09-03T13:20:42.290Z,29.03
2022-09-03T13:23:41.406Z,29.67
2022-09-03T13:26:16.279Z,29.77
2022-09-03T13:29:01.871Z,31.26
2022-09-03T13:31:36.663Z,31.27
2022-09-03T13:34:15.882Z,30.40
2022-09-03T13:36:56.647Z,27.25
2022-09-03T13:39:52.620Z,27.87
2022-09-03T13:42:32.981Z,23.49
2022-09-03T13:45:30.368Z,23.90
2022-09-03T13:48:20.162Z,22.72
2022-09-03T13:50:59.626Z,24.95
2022-09-03T13:53:36.846Z,25.01
2022-09-03T13:56:16.084Z,24.78
2022-09-03T13:58:49.371Z,22.78
2022-09-03T14:01:41.676Z,22.29
2022-09-03T14:04:25.418Z,22.01
2022-09-03T14:07:09.622Z,23.39
2022-09-03T14:10:10.592Z,25.92
2022-09-03T14:12:49.360Z,27.65
2022-09-03T14:15:29.682Z,28.66
2022-09-03T14:18:24.156Z,31.61
2022-09-03T14:20:57.648Z,34.47
2022-09-03T14:23:55.197Z,36.55
2022-09-03T14:26:38.500Z,37.27
2022-09-03T14:29:13.179Z,37.58
2022-09-03T14:32:14.731Z,38.82
2022-09-03T14:35:06.044Z,38.40
2022-09-03T14:37:39.751Z,38.81
2022-09-03T14:40:19.137Z,38.80
2022-09-03T14:43:02.229Z,39.78
2022-09-03T14:45:45.510Z,39.55
2022-09-03T14:48:48.675Z,38.44
2022-09-03T14:51:22.043Z,38.42
2022-09-03T14:54:14.637Z,41.16
2022-09-03T14:56:46.447Z,40.69
2022-09-03T14:59:38.479Z,40.64
2022-09-03T15:02:12.068Z,39.92
2022-09-03T15:04:51.422Z,41.20
2022-09-03T15:07:33.137Z,41.54
2022-09-03T15:10:33.083Z,41.42
2022-09-03T15:13:19.156Z,42.09
2022-09-03T15:15:59.608Z,44.32
2022-09-03T15:18:51.124Z,44.06
2022-09-03T15:21:52.449Z,43.59
2022-09-03T15:24:41.945Z,40.50
2022-09-03T15:27:17.513Z,39.47
2022-09-03T15:30:15.654Z,40.40
2022-09-03T15:33:22.294Z,42.93
2022-09-03T15:36:16.375Z,42.02
2022-09-03T15:38:55.186Z,38.19
2022-09-03T15:41:40.487Z,38.91
2022-09-03T15:44:18.950Z,40.73
2022-09-03T15:46:50.016Z,42.32
2022-09-03T15:49:20.492Z,44.45
2022-09-03T15:52:21.043Z,45.03
2022-09-03T15:55:11.726Z,46.33
2022-09-03T15:58:14.414Z,44.08
2022-09-03T16:00:48.349Z,43.50
2022-09-03T16:03:23.889Z,45.01
2022-09-03T16:06:05.904Z,45.06
2022-09-03T16:08:55.448Z,46.98
2022-09-03T16:12:04.942Z,47.37
2022-09-03T16:14:47.602Z,47.61
2022-09-03T16:17:43.444Z,47.59
2022-09-03T16:20:21.672Z,47.14
2022-09-03T16:22:56.460Z,47.84
2022-09-03T16:25:31.935Z,48.03
2022-09-03T16:28:19.473Z,47.63
2022-09-03T16:30:52.501Z,46.97
2022-09-03T16:33:27.905Z,45.57
2022-09-03T16:36:10.596Z,44.56
2022-09-03T16:38:43.904Z,44.76
2022-09-03T16:41:33.249Z,45.18
2022-09-03T16:44:16.122Z,46.45
2022-09-03T16:46:54.485Z,46.10
2022-09-03T16:49:34.838Z,47.40
2022-09-03T16:52:37.877Z,49.23
2022-09-03T16:55:31.633Z,48.87
2022-09-03T16:58:22.216Z,49.05
2022-09-03T17:01:25.037Z,48.54
2022-09-03T17:04:17.651Z,49.62
2022-09-03T17:07:04.990Z,50.24
2022-09-03T17:10:02.091Z,50.98
2022-09-03T17:12:32.341Z,52.08
2022-09-03T17:15:05.614Z,53.67
2022-09-03T17:17:51.283Z,54.71
2022-09-03T17:20:40.893Z,54.91
2022-09-03T17:23:31.340Z,54.35
2022-09-03T17:26:31.261Z,55.81
2022-09-03T17:29:26.218Z,57.74
2022-09-03T17:32:28.112Z,59.60
2022-09-03T17:35:07.886Z,57.07
2022-09-03T17:38:02.138Z,58.49
2022-09-03T17:41:01.064Z,61.82
2022-09-03T17:43:33.858Z,59.94
2022-09-03T17:46:44.128Z,61.71
2022-09-03T17:49:22.292Z,63.90
2022-09-03T17:51:59.363Z,64.77
2022-09-03T17:54:52.221Z,67.67
2022-09-03T17:57:30.762Z,65.99
2022-09-03T18:00:09.361Z,69.95
2022-09-03T18:02:50.564Z,70.13
2022-09-03T18:05:42.611Z,71.48
2022-09-03T18:08:11.900Z,71.59
2022-09-03T18:11:01.067Z,70.31
2022-09-03T18:13:51.545Z,70.88
2022-09-03T18:16:31.856Z,70.69
2022-09-03T18:19:05.109Z,70.27
2022-09-03T18:21:56.357Z,70.02
2022-09-03T18:24:50.935Z,70.35
2022-09-03T18:27:42.971Z,72.92
2022-09-03T18:30:31.443Z,71.60
2022-09-03T18:33:17.766Z,71.85
2022-09-03T18:36:05.710Z,71.48
2022-09-03T18:38:55.120Z,72.28
2022-09-03T18:42:09.311Z,72.85
2022-09-03T18:45:23.981Z,74.91
2022-09-03T18:48:38.229Z,76.02
2022-09-03T18:51:42.919Z,76.18
2022-09-03T18:54:50.607Z,77.93
2022-09-03T18:58:02.474Z,78.80
2022-09-03T19:00:52.831Z,79.87
2022-09-03T19:04:18.524Z,81.38
2022-09-03T19:07:32.760Z,80.49
2022-09-03T19:10:25.456Z,80.97
2022-09-03T19:13:24.949Z,80.87
2022-09-03T19:16:21.443Z,82.15
2022-09-03T19:19:19.635Z,81.21
2022-09-03T19:22:13.829Z,81.72
2022-09-03T19:24:59.776Z,82.44
2022-09-03T19:28:03.791Z,81.64
2022-09-03T19:31:33.472Z,82.90
2022-09-03T19:34:31.834Z,81.45
2022-09-03T19:37:29.254Z,81.71
2022-09-03T19:40:32.321Z,83.28
2022-09-03T19:43:59.967Z,83.25
2022-09-03T19:46:59.832Z,83.71
2022-09-03T19:50:33.241Z,85.81
2022-09-03T19:53:23.264Z,84.86
2022-09-03T19:56:14.783Z,84.34
2022-09-03T19:59:08.711Z,84.81
2022-09-03T20:01:56.763Z,84.42
2022-09-03T20:04:53.813Z,84.79
2022-09-03T20:07:40.167Z,85.15
2022-09-03T20:10:24.584Z,85.42
2022-09-03T20:13:13.434Z,86.42
2022-09-03T20:15:59.393Z,87.15
2022-09-03T20:18:43.023Z,87.13
2022-09-03T20:21:16.598Z,86.80
2022-09-03T20:24:06.500Z,86.27
2022-09-03T20:26:59.972Z,87.28
2022-09-03T20:29:30.374Z,88.08
2022-09-03T20:32:12.320Z,87.34
2022-09-03T20:34:59.786Z,87.55
2022-09-03T20:37:59.129Z,89.16
2022-09-03T20:40:38.483Z,89.40
2022-09-03T20:43:39.000Z,90.88
2022-09-03T20:46:33.525Z,91.00
2022-09-03T20:49:05.072Z,91.25
2022-09-03T20:51:41.165Z,92.56
2022-09-03T20:54:09.588Z,93.00
2022-09-03T20:57:08.256Z,92.66
2022-09-03T20:59:55.585Z,93.01
2022-09-03T21:03:03.748Z,93.64
2022-09-03T21:05:43.655Z,92.79
2022-09-03T21:08:26.729Z,93.58
2022-09-03T21:10:58.925Z,94.40
2022-09-03T21:13:56.609Z,94.73
2022-09-03T21:16:51.450Z,95.28
2022-09-03T21:19:41.664Z,95.66
2022-09-03T21:22:10.157Z,96.17
2022-09-03T21:24:51.301Z,97.67
2022-09-03T21:27:36.387Z,98.29
2022-09-03T21:30:07.421Z,97.35
2022-09-03T21:33:02.250Z,97.59
2022-09-03T21:35:36.259Z,97.15
2022-09-03T21:38:13.360Z,97.45
2022-09-03T21:41:08.173Z,97.06
2022-09-03T21:43:50.577Z,96.38
2022-09-03T21:46:56.901Z,98.63
2022-09-03T21:49:35.822Z,98.88
2022-09-03T21:52:13.548Z,99.11
2022-09-03T21:54:41.356Z,98.91
2022-09-03T21:57:22.494Z,98.39
2022-09-03T22:00:20.512Z,97.74
2022-09-03T22:02:49.928Z,97.35
2022-09-03T22:05:19.079Z,97.96
2022-09-03T22:08:26.488Z,98.42
2022-09-03T22:11:25.239Z,100.00
2022-09-03T22:14:06.499Z,99.59
2022-09-03T22:16:53.213Z,98.78
2022-09-03T22:19:21.904Z,99.20
2022-09-03T22:22:02.434Z,100.00
2022-09-03T22:24:37.547Z,99.35
2022-09-03T22:27:25.437Z,98.14
2022-09-03T22:30:11.456Z,98.08
2022-09-03T22:33:17.513Z,98.67
2022-09-03T22:36:37.556Z,98.27
2022-09-03T22:39:24.403Z,98.64
2022-09-03T22:42:24.991Z,98.96
2022-09-03T22:45:12.470Z,97.43
2022-09-03T22:47:49.635Z,97.82
2022-09-03T22:50:26.820Z,97.46
2022-09-03T22:53:05.229Z,98.09
2022-09-03T22:55:35.118Z,99.37
2022-09-03T22:58:15.740Z,100.00
2022-09-03T23:00:55.968Z,100.00
2022-09-03T23:03:37.062Z,100.00
2022-09-03T23:06:10.551Z,99.87
2022-09-03T23:09:00.719Z,100.00
2022-09-03T23:11:38.851Z,100.00
2022-09-03T23:14:13.187Z,100.00
2022-09-03T23:17:20.319Z,100.00
2022-09-03T23:19:53.312Z,100.00
2022-09-03T23:22:21.253Z,100.00
2022-09-03T23:25:11.855Z,100.00
2022-09-03T23:27:53.671Z,100.00
2022-09-03T23:30:22.780Z,100.00
2022-09-03T23:32:56.276Z,100.00
2022-09-03T23:35:34.608Z,100.00
2022-09-03T23:38:24.329Z,100.00
2022-09-03T23:40:57.326Z,100.00
2022-09-03T23:44:07.178Z,100.00
2022-09-03T23:46:45.484Z,100.00
2022-09-03T23:49:50.499Z,100.00
2022-09-03T23:52:30.364Z,100.00
2022-09-03T23:55:23.512Z,100.00
2022-09-03T23:58:25.129Z,100.00
